sensor_id;sensor_type;location;lat;lon;timestamp;P1;durP1;ratioP1;P2;durP2;ratioP2
27491;SDS011;14927;51.210;6.838;2023-09-19T00:00:22;4.93;;;1.25;;
27491;SDS011;14927;51.210;6.838;2023-09-19T00:03:09;5.43;;;1.88;;
27491;SDS011;14927;51.210;6.838;2023-09-19T00:05:55;6.18;;;1.77;;
27491;SDS011;14927;51.210;6.838;2023-09-19T00:08:42;5.40;;;2.10;;
27491;SDS011;14927;51.210;6.838;2023-09-19T00:11:28;3.60;;;1.17;;
27491;SDS011;14927;51.210;6.838;2023-09-19T00:14:12;6.75;;;1.40;;
27491;SDS011;14927;51.210;6.838;2023-09-19T00:16:58;5.93;;;2.03;;
27491;SDS011;14927;51.210;6.838;2023-09-19T00:19:44;5.35;;;1.40;;
27491;SDS011;14927;51.210;6.838;2023-09-19T00:22:30;6.05;;;1.52;;
27491;SDS011;14927;51.210;6.838;2023-09-19T00:25:16;7.65;;;2.25;;
27491;SDS011;14927;51.210;6.838;2023-09-19T00:28:01;7.25;;;1.30;;
27491;SDS011;14927;51.210;6.838;2023-09-19T00:30:45;5.07;;;1.67;;
27491;SDS011;14927;51.210;6.838;2023-09-19T00:33:36;10.10;;;1.48;;
27491;SDS011;14927;51.210;6.838;2023-09-19T00:36:20;8.82;;;1.98;;
27491;SDS011;14927;51.210;6.838;2023-09-19T00:39:05;9.23;;;1.95;;
27491;SDS011;14927;51.210;6.838;2023-09-19T00:41:53;8.43;;;1.73;;
27491;SDS011;14927;51.210;6.838;2023-09-19T00:44:38;5.88;;;1.25;;
27491;SDS011;14927;51.210;6.838;2023-09-19T00:47:23;6.47;;;1.63;;
27491;SDS011;14927;51.210;6.838;2023-09-19T00:50:09;6.07;;;1.70;;
27491;SDS011;14927;51.210;6.838;2023-09-19T00:52:54;7.57;;;1.65;;
27491;SDS011;14927;51.210;6.838;2023-09-19T00:55:40;9.00;;;2.38;;
27491;SDS011;14927;51.210;6.838;2023-09-19T00:58:26;10.52;;;1.98;;
27491;SDS011;14927;51.210;6.838;2023-09-19T01:01:16;7.38;;;1.92;;
27491;SDS011;14927;51.210;6.838;2023-09-19T01:04:01;5.70;;;1.92;;
27491;SDS011;14927;51.210;6.838;2023-09-19T01:06:46;6.97;;;1.98;;
27491;SDS011;14927;51.210;6.838;2023-09-19T01:09:36;7.70;;;2.20;;
27491;SDS011;14927;51.210;6.838;2023-09-19T01:12:22;7.88;;;1.80;;
27491;SDS011;14927;51.210;6.838;2023-09-19T01:18:34;6.15;;;1.55;;
27491;SDS011;14927;51.210;6.838;2023-09-19T01:22:06;9.70;;;1.73;;
27491;SDS011;14927;51.210;6.838;2023-09-19T01:31:31;8.02;;;1.92;;
27491;SDS011;14927;51.210;6.838;2023-09-19T01:34:20;8.40;;;1.88;;
27491;SDS011;14927;51.210;6.838;2023-09-19T01:37:05;11.30;;;1.67;;
27491;SDS011;14927;51.210;6.838;2023-09-19T01:39:50;9.60;;;1.65;;
27491;SDS011;14927;51.210;6.838;2023-09-19T01:42:44;5.82;;;1.75;;
27491;SDS011;14927;51.210;6.838;2023-09-19T01:46:00;7.70;;;1.90;;
27491;SDS011;14927;51.210;6.838;2023-09-19T01:49:29;6.13;;;2.03;;
27491;SDS011;14927;51.210;6.838;2023-09-19T01:52:22;7.57;;;1.95;;
27491;SDS011;14927;51.210;6.838;2023-09-19T01:55:09;12.90;;;2.05;;
27491;SDS011;14927;51.210;6.838;2023-09-19T02:01:00;7.22;;;1.85;;
27491;SDS011;14927;51.210;6.838;2023-09-19T02:03:46;7.10;;;1.80;;
27491;SDS011;14927;51.210;6.838;2023-09-19T02:06:32;8.75;;;2.20;;
27491;SDS011;14927;51.210;6.838;2023-09-19T02:09:17;8.88;;;1.83;;
27491;SDS011;14927;51.210;6.838;2023-09-19T02:12:02;6.25;;;1.90;;
27491;SDS011;14927;51.210;6.838;2023-09-19T02:14:47;7.65;;;1.67;;
27491;SDS011;14927;51.210;6.838;2023-09-19T02:17:32;11.00;;;1.98;;
27491;SDS011;14927;51.210;6.838;2023-09-19T02:20:17;9.60;;;2.08;;
27491;SDS011;14927;51.210;6.838;2023-09-19T02:23:04;7.40;;;1.40;;
27491;SDS011;14927;51.210;6.838;2023-09-19T02:25:55;14.35;;;3.25;;
27491;SDS011;14927;51.210;6.838;2023-09-19T02:28:43;6.10;;;1.63;;
27491;SDS011;14927;51.210;6.838;2023-09-19T02:31:29;8.20;;;1.83;;
27491;SDS011;14927;51.210;6.838;2023-09-19T02:34:14;7.93;;;1.98;;
27491;SDS011;14927;51.210;6.838;2023-09-19T02:37:00;7.25;;;1.50;;
27491;SDS011;14927;51.210;6.838;2023-09-19T02:39:45;10.88;;;2.00;;
27491;SDS011;14927;51.210;6.838;2023-09-19T02:42:29;8.63;;;1.95;;
27491;SDS011;14927;51.210;6.838;2023-09-19T02:45:14;9.60;;;1.65;;
27491;SDS011;14927;51.210;6.838;2023-09-19T02:48:06;6.18;;;1.38;;
27491;SDS011;14927;51.210;6.838;2023-09-19T02:50:51;8.68;;;2.42;;
27491;SDS011;14927;51.210;6.838;2023-09-19T02:53:35;5.32;;;2.08;;
27491;SDS011;14927;51.210;6.838;2023-09-19T02:56:20;7.13;;;1.80;;
27491;SDS011;14927;51.210;6.838;2023-09-19T02:59:04;7.63;;;1.40;;
27491;SDS011;14927;51.210;6.838;2023-09-19T03:01:49;9.05;;;2.35;;
27491;SDS011;14927;51.210;6.838;2023-09-19T03:04:34;5.15;;;1.40;;
27491;SDS011;14927;51.210;6.838;2023-09-19T03:07:19;13.15;;;2.28;;
27491;SDS011;14927;51.210;6.838;2023-09-19T03:10:08;4.93;;;1.45;;
27491;SDS011;14927;51.210;6.838;2023-09-19T03:12:53;11.88;;;1.98;;
27491;SDS011;14927;51.210;6.838;2023-09-19T03:15:41;6.82;;;2.10;;
27491;SDS011;14927;51.210;6.838;2023-09-19T03:18:29;9.23;;;1.92;;
27491;SDS011;14927;51.210;6.838;2023-09-19T03:21:16;7.30;;;1.77;;
27491;SDS011;14927;51.210;6.838;2023-09-19T03:24:08;8.32;;;1.95;;
27491;SDS011;14927;51.210;6.838;2023-09-19T03:26:53;7.93;;;2.20;;
27491;SDS011;14927;51.210;6.838;2023-09-19T03:29:38;9.82;;;1.98;;
27491;SDS011;14927;51.210;6.838;2023-09-19T03:32:23;9.43;;;1.88;;
27491;SDS011;14927;51.210;6.838;2023-09-19T03:35:07;8.20;;;1.73;;
27491;SDS011;14927;51.210;6.838;2023-09-19T03:37:57;10.18;;;1.88;;
27491;SDS011;14927;51.210;6.838;2023-09-19T03:40:43;7.90;;;1.60;;
27491;SDS011;14927;51.210;6.838;2023-09-19T03:43:28;8.18;;;2.13;;
27491;SDS011;14927;51.210;6.838;2023-09-19T03:46:12;6.15;;;1.70;;
27491;SDS011;14927;51.210;6.838;2023-09-19T03:48:58;8.88;;;2.00;;
27491;SDS011;14927;51.210;6.838;2023-09-19T03:51:43;7.28;;;1.90;;
27491;SDS011;14927;51.210;6.838;2023-09-19T03:54:28;8.75;;;2.20;;
27491;SDS011;14927;51.210;6.838;2023-09-19T03:57:12;8.13;;;1.98;;
27491;SDS011;14927;51.210;6.838;2023-09-19T03:59:59;6.53;;;1.27;;
27491;SDS011;14927;51.210;6.838;2023-09-19T04:02:44;7.68;;;2.20;;
27491;SDS011;14927;51.210;6.838;2023-09-19T04:05:29;7.32;;;1.80;;
27491;SDS011;14927;51.210;6.838;2023-09-19T04:08:14;12.10;;;1.92;;
27491;SDS011;14927;51.210;6.838;2023-09-19T04:10:59;10.63;;;2.17;;
27491;SDS011;14927;51.210;6.838;2023-09-19T04:13:43;8.05;;;2.15;;
27491;SDS011;14927;51.210;6.838;2023-09-19T04:16:28;8.02;;;1.92;;
27491;SDS011;14927;51.210;6.838;2023-09-19T04:19:12;13.32;;;2.30;;
27491;SDS011;14927;51.210;6.838;2023-09-19T04:21:58;11.55;;;2.00;;
27491;SDS011;14927;51.210;6.838;2023-09-19T04:24:43;9.23;;;2.28;;
27491;SDS011;14927;51.210;6.838;2023-09-19T04:27:27;9.60;;;1.92;;
27491;SDS011;14927;51.210;6.838;2023-09-19T04:30:12;12.38;;;2.80;;
27491;SDS011;14927;51.210;6.838;2023-09-19T04:32:58;9.23;;;2.58;;
27491;SDS011;14927;51.210;6.838;2023-09-19T04:35:45;8.77;;;2.17;;
27491;SDS011;14927;51.210;6.838;2023-09-19T04:38:34;8.82;;;2.42;;
27491;SDS011;14927;51.210;6.838;2023-09-19T04:41:19;9.90;;;2.03;;
27491;SDS011;14927;51.210;6.838;2023-09-19T04:44:04;10.95;;;2.30;;
27491;SDS011;14927;51.210;6.838;2023-09-19T04:46:49;13.80;;;2.75;;
27491;SDS011;14927;51.210;6.838;2023-09-19T04:49:34;11.40;;;1.73;;
27491;SDS011;14927;51.210;6.838;2023-09-19T04:52:19;5.90;;;2.08;;
27491;SDS011;14927;51.210;6.838;2023-09-19T04:55:04;8.75;;;2.65;;
27491;SDS011;14927;51.210;6.838;2023-09-19T04:57:49;7.75;;;2.17;;
27491;SDS011;14927;51.210;6.838;2023-09-19T05:00:34;10.55;;;2.92;;
27491;SDS011;14927;51.210;6.838;2023-09-19T05:03:18;10.05;;;2.13;;
27491;SDS011;14927;51.210;6.838;2023-09-19T05:06:04;7.28;;;1.95;;
27491;SDS011;14927;51.210;6.838;2023-09-19T05:08:48;8.52;;;2.35;;
27491;SDS011;14927;51.210;6.838;2023-09-19T05:11:35;8.48;;;2.08;;
27491;SDS011;14927;51.210;6.838;2023-09-19T05:14:21;7.68;;;2.28;;
27491;SDS011;14927;51.210;6.838;2023-09-19T05:17:07;11.40;;;2.20;;
27491;SDS011;14927;51.210;6.838;2023-09-19T05:19:52;9.88;;;2.20;;
27491;SDS011;14927;51.210;6.838;2023-09-19T05:22:36;13.70;;;2.67;;
27491;SDS011;14927;51.210;6.838;2023-09-19T05:25:23;8.90;;;2.00;;
27491;SDS011;14927;51.210;6.838;2023-09-19T05:28:09;14.57;;;2.80;;
27491;SDS011;14927;51.210;6.838;2023-09-19T05:31:00;7.25;;;2.13;;
27491;SDS011;14927;51.210;6.838;2023-09-19T05:33:46;11.02;;;3.22;;
27491;SDS011;14927;51.210;6.838;2023-09-19T05:36:30;12.82;;;2.63;;
27491;SDS011;14927;51.210;6.838;2023-09-19T05:39:15;11.85;;;2.60;;
27491;SDS011;14927;51.210;6.838;2023-09-19T05:42:00;9.65;;;2.85;;
27491;SDS011;14927;51.210;6.838;2023-09-19T05:44:45;8.80;;;2.35;;
27491;SDS011;14927;51.210;6.838;2023-09-19T05:47:29;10.77;;;2.10;;
27491;SDS011;14927;51.210;6.838;2023-09-19T05:50:14;11.40;;;2.67;;
27491;SDS011;14927;51.210;6.838;2023-09-19T05:53:00;11.45;;;2.10;;
27491;SDS011;14927;51.210;6.838;2023-09-19T05:55:45;9.48;;;2.17;;
27491;SDS011;14927;51.210;6.838;2023-09-19T05:58:29;8.07;;;2.75;;
27491;SDS011;14927;51.210;6.838;2023-09-19T06:01:14;10.13;;;2.30;;
27491;SDS011;14927;51.210;6.838;2023-09-19T06:03:58;7.93;;;2.38;;
27491;SDS011;14927;51.210;6.838;2023-09-19T06:06:44;11.15;;;2.33;;
27491;SDS011;14927;51.210;6.838;2023-09-19T06:09:32;8.98;;;2.20;;
27491;SDS011;14927;51.210;6.838;2023-09-19T06:12:17;9.65;;;2.08;;
27491;SDS011;14927;51.210;6.838;2023-09-19T06:15:02;11.57;;;2.28;;
27491;SDS011;14927;51.210;6.838;2023-09-19T06:17:49;12.35;;;2.20;;
27491;SDS011;14927;51.210;6.838;2023-09-19T06:20:38;18.47;;;2.80;;
27491;SDS011;14927;51.210;6.838;2023-09-19T06:23:27;11.60;;;2.30;;
27491;SDS011;14927;51.210;6.838;2023-09-19T06:26:12;13.02;;;3.05;;
27491;SDS011;14927;51.210;6.838;2023-09-19T06:28:57;13.65;;;3.05;;
27491;SDS011;14927;51.210;6.838;2023-09-19T06:31:43;11.52;;;2.78;;
27491;SDS011;14927;51.210;6.838;2023-09-19T06:34:28;7.03;;;2.10;;
27491;SDS011;14927;51.210;6.838;2023-09-19T06:37:13;10.88;;;2.08;;
27491;SDS011;14927;51.210;6.838;2023-09-19T06:39:57;11.90;;;2.30;;
27491;SDS011;14927;51.210;6.838;2023-09-19T06:42:46;10.45;;;2.20;;
27491;SDS011;14927;51.210;6.838;2023-09-19T06:45:34;8.55;;;1.77;;
27491;SDS011;14927;51.210;6.838;2023-09-19T06:48:19;15.80;;;2.92;;
27491;SDS011;14927;51.210;6.838;2023-09-19T06:51:04;8.82;;;2.33;;
27491;SDS011;14927;51.210;6.838;2023-09-19T06:53:49;8.93;;;2.00;;
27491;SDS011;14927;51.210;6.838;2023-09-19T06:56:33;11.98;;;3.25;;
27491;SDS011;14927;51.210;6.838;2023-09-19T06:59:18;16.63;;;3.15;;
27491;SDS011;14927;51.210;6.838;2023-09-19T07:02:03;9.45;;;2.47;;
27491;SDS011;14927;51.210;6.838;2023-09-19T07:04:49;11.13;;;2.70;;
27491;SDS011;14927;51.210;6.838;2023-09-19T07:07:34;13.60;;;2.60;;
27491;SDS011;14927;51.210;6.838;2023-09-19T07:10:18;13.38;;;2.58;;
27491;SDS011;14927;51.210;6.838;2023-09-19T07:13:04;11.88;;;2.10;;
27491;SDS011;14927;51.210;6.838;2023-09-19T07:15:54;12.32;;;2.63;;
27491;SDS011;14927;51.210;6.838;2023-09-19T07:18:38;13.82;;;2.70;;
27491;SDS011;14927;51.210;6.838;2023-09-19T07:21:23;13.02;;;3.55;;
27491;SDS011;14927;51.210;6.838;2023-09-19T07:24:07;12.48;;;2.80;;
27491;SDS011;14927;51.210;6.838;2023-09-19T07:26:52;12.50;;;2.47;;
27491;SDS011;14927;51.210;6.838;2023-09-19T07:29:37;12.38;;;2.47;;
27491;SDS011;14927;51.210;6.838;2023-09-19T07:32:21;9.75;;;2.30;;
27491;SDS011;14927;51.210;6.838;2023-09-19T07:35:07;13.32;;;2.78;;
27491;SDS011;14927;51.210;6.838;2023-09-19T07:37:52;12.25;;;2.40;;
27491;SDS011;14927;51.210;6.838;2023-09-19T07:40:36;10.80;;;3.25;;
27491;SDS011;14927;51.210;6.838;2023-09-19T07:43:21;10.40;;;3.33;;
27491;SDS011;14927;51.210;6.838;2023-09-19T07:46:06;10.57;;;2.55;;
27491;SDS011;14927;51.210;6.838;2023-09-19T07:48:52;8.35;;;2.22;;
27491;SDS011;14927;51.210;6.838;2023-09-19T07:51:37;10.60;;;2.17;;
27491;SDS011;14927;51.210;6.838;2023-09-19T07:54:22;10.93;;;2.45;;
27491;SDS011;14927;51.210;6.838;2023-09-19T07:57:07;12.18;;;2.38;;
27491;SDS011;14927;51.210;6.838;2023-09-19T07:59:51;11.23;;;2.03;;
27491;SDS011;14927;51.210;6.838;2023-09-19T08:02:37;8.23;;;1.85;;
27491;SDS011;14927;51.210;6.838;2023-09-19T08:05:22;10.27;;;1.92;;
27491;SDS011;14927;51.210;6.838;2023-09-19T08:08:07;8.77;;;2.30;;
27491;SDS011;14927;51.210;6.838;2023-09-19T08:10:55;9.57;;;2.88;;
27491;SDS011;14927;51.210;6.838;2023-09-19T08:13:41;9.07;;;2.30;;
27491;SDS011;14927;51.210;6.838;2023-09-19T08:16:32;9.93;;;2.50;;
27491;SDS011;14927;51.210;6.838;2023-09-19T08:19:17;11.13;;;2.05;;
27491;SDS011;14927;51.210;6.838;2023-09-19T08:22:01;10.40;;;2.08;;
27491;SDS011;14927;51.210;6.838;2023-09-19T08:24:46;10.57;;;2.40;;
27491;SDS011;14927;51.210;6.838;2023-09-19T08:27:31;7.28;;;2.17;;
27491;SDS011;14927;51.210;6.838;2023-09-19T08:30:16;10.82;;;2.38;;
27491;SDS011;14927;51.210;6.838;2023-09-19T08:33:04;10.25;;;2.20;;
27491;SDS011;14927;51.210;6.838;2023-09-19T08:35:55;11.20;;;2.65;;
27491;SDS011;14927;51.210;6.838;2023-09-19T08:38:40;11.82;;;2.50;;
27491;SDS011;14927;51.210;6.838;2023-09-19T08:41:24;8.30;;;2.30;;
27491;SDS011;14927;51.210;6.838;2023-09-19T08:44:10;9.98;;;2.20;;
27491;SDS011;14927;51.210;6.838;2023-09-19T08:46:56;8.80;;;2.15;;
27491;SDS011;14927;51.210;6.838;2023-09-19T08:50:04;8.82;;;2.10;;
27491;SDS011;14927;51.210;6.838;2023-09-19T08:53:15;10.20;;;2.00;;
27491;SDS011;14927;51.210;6.838;2023-09-19T08:56:12;5.57;;;2.00;;
27491;SDS011;14927;51.210;6.838;2023-09-19T08:59:06;9.80;;;2.30;;
27491;SDS011;14927;51.210;6.838;2023-09-19T09:01:55;9.30;;;2.67;;
27491;SDS011;14927;51.210;6.838;2023-09-19T09:04:40;8.98;;;1.70;;
27491;SDS011;14927;51.210;6.838;2023-09-19T09:07:27;7.43;;;1.65;;
27491;SDS011;14927;51.210;6.838;2023-09-19T09:10:12;9.10;;;2.00;;
27491;SDS011;14927;51.210;6.838;2023-09-19T09:12:57;14.18;;;2.63;;
27491;SDS011;14927;51.210;6.838;2023-09-19T09:15:42;10.27;;;2.65;;
27491;SDS011;14927;51.210;6.838;2023-09-19T09:18:28;10.73;;;1.90;;
27491;SDS011;14927;51.210;6.838;2023-09-19T09:21:16;10.88;;;2.15;;
27491;SDS011;14927;51.210;6.838;2023-09-19T09:24:19;9.55;;;2.35;;
27491;SDS011;14927;51.210;6.838;2023-09-19T09:27:17;9.77;;;1.88;;
27491;SDS011;14927;51.210;6.838;2023-09-19T09:30:02;8.60;;;2.28;;
27491;SDS011;14927;51.210;6.838;2023-09-19T09:32:47;9.88;;;2.28;;
27491;SDS011;14927;51.210;6.838;2023-09-19T09:35:54;7.57;;;1.45;;
27491;SDS011;14927;51.210;6.838;2023-09-19T09:38:46;7.53;;;1.83;;
27491;SDS011;14927;51.210;6.838;2023-09-19T09:41:38;8.27;;;2.30;;
27491;SDS011;14927;51.210;6.838;2023-09-19T09:44:23;7.93;;;1.92;;
27491;SDS011;14927;51.210;6.838;2023-09-19T09:47:08;16.80;;;2.72;;
27491;SDS011;14927;51.210;6.838;2023-09-19T09:50:11;10.70;;;3.05;;
27491;SDS011;14927;51.210;6.838;2023-09-19T09:53:01;10.77;;;2.13;;
27491;SDS011;14927;51.210;6.838;2023-09-19T09:58:51;4.90;;;1.58;;
27491;SDS011;14927;51.210;6.838;2023-09-19T10:01:47;7.65;;;1.55;;
27491;SDS011;14927;51.210;6.838;2023-09-19T10:04:33;10.23;;;2.00;;
27491;SDS011;14927;51.210;6.838;2023-09-19T10:07:29;7.15;;;2.03;;
27491;SDS011;14927;51.210;6.838;2023-09-19T10:10:33;9.15;;;1.95;;
27491;SDS011;14927;51.210;6.838;2023-09-19T10:13:25;8.73;;;1.95;;
27491;SDS011;14927;51.210;6.838;2023-09-19T10:16:17;8.65;;;2.25;;
27491;SDS011;14927;51.210;6.838;2023-09-19T10:19:02;8.95;;;2.10;;
27491;SDS011;14927;51.210;6.838;2023-09-19T10:21:53;7.80;;;2.25;;
27491;SDS011;14927;51.210;6.838;2023-09-19T10:24:40;8.80;;;2.13;;
27491;SDS011;14927;51.210;6.838;2023-09-19T10:27:26;6.97;;;2.25;;
27491;SDS011;14927;51.210;6.838;2023-09-19T10:30:12;9.38;;;2.38;;
27491;SDS011;14927;51.210;6.838;2023-09-19T10:33:02;9.52;;;2.75;;
27491;SDS011;14927;51.210;6.838;2023-09-19T10:35:50;9.20;;;1.92;;
27491;SDS011;14927;51.210;6.838;2023-09-19T10:38:35;8.45;;;1.98;;
27491;SDS011;14927;51.210;6.838;2023-09-19T10:41:24;8.93;;;2.30;;
27491;SDS011;14927;51.210;6.838;2023-09-19T10:44:11;7.60;;;2.08;;
27491;SDS011;14927;51.210;6.838;2023-09-19T10:46:57;8.90;;;1.85;;
27491;SDS011;14927;51.210;6.838;2023-09-19T10:49:44;6.15;;;1.67;;
27491;SDS011;14927;51.210;6.838;2023-09-19T10:52:32;8.70;;;2.10;;
27491;SDS011;14927;51.210;6.838;2023-09-19T10:55:24;7.55;;;2.00;;
27491;SDS011;14927;51.210;6.838;2023-09-19T10:58:12;7.35;;;1.70;;
27491;SDS011;14927;51.210;6.838;2023-09-19T11:01:02;8.57;;;2.05;;
27491;SDS011;14927;51.210;6.838;2023-09-19T11:03:50;5.13;;;2.08;;
27491;SDS011;14927;51.210;6.838;2023-09-19T11:07:20;9.38;;;1.92;;
27491;SDS011;14927;51.210;6.838;2023-09-19T11:10:05;7.80;;;2.00;;
27491;SDS011;14927;51.210;6.838;2023-09-19T11:12:54;5.03;;;1.55;;
27491;SDS011;14927;51.210;6.838;2023-09-19T11:27:09;6.18;;;1.92;;
27491;SDS011;14927;51.210;6.838;2023-09-19T11:33:17;5.18;;;1.95;;
27491;SDS011;14927;51.210;6.838;2023-09-19T11:36:15;12.27;;;2.08;;
27491;SDS011;14927;51.210;6.838;2023-09-19T11:39:03;8.27;;;1.55;;
27491;SDS011;14927;51.210;6.838;2023-09-19T11:41:52;8.50;;;2.33;;
27491;SDS011;14927;51.210;6.838;2023-09-19T11:44:40;8.25;;;1.73;;
27491;SDS011;14927;51.210;6.838;2023-09-19T11:47:25;6.57;;;1.67;;
27491;SDS011;14927;51.210;6.838;2023-09-19T11:50:10;4.97;;;1.77;;
27491;SDS011;14927;51.210;6.838;2023-09-19T11:52:55;5.47;;;2.13;;
27491;SDS011;14927;51.210;6.838;2023-09-19T11:55:40;6.97;;;1.50;;
27491;SDS011;14927;51.210;6.838;2023-09-19T11:58:28;6.20;;;1.65;;
27491;SDS011;14927;51.210;6.838;2023-09-19T12:01:14;4.15;;;1.58;;
27491;SDS011;14927;51.210;6.838;2023-09-19T12:04:04;6.43;;;1.92;;
27491;SDS011;14927;51.210;6.838;2023-09-19T12:06:56;4.65;;;1.30;;
27491;SDS011;14927;51.210;6.838;2023-09-19T12:09:42;5.55;;;1.80;;
27491;SDS011;14927;51.210;6.838;2023-09-19T12:12:31;6.35;;;1.75;;
27491;SDS011;14927;51.210;6.838;2023-09-19T12:15:26;6.78;;;1.83;;
27491;SDS011;14927;51.210;6.838;2023-09-19T12:21:26;6.13;;;1.65;;
27491;SDS011;14927;51.210;6.838;2023-09-19T12:24:16;4.25;;;1.60;;
27491;SDS011;14927;51.210;6.838;2023-09-19T12:27:04;4.53;;;1.65;;
27491;SDS011;14927;51.210;6.838;2023-09-19T12:29:50;5.65;;;2.00;;
27491;SDS011;14927;51.210;6.838;2023-09-19T12:32:40;7.63;;;2.33;;
27491;SDS011;14927;51.210;6.838;2023-09-19T12:38:24;4.95;;;1.73;;
27491;SDS011;14927;51.210;6.838;2023-09-19T12:41:12;4.65;;;1.60;;
27491;SDS011;14927;51.210;6.838;2023-09-19T12:43:57;5.63;;;2.05;;
27491;SDS011;14927;51.210;6.838;2023-09-19T12:46:44;3.33;;;1.20;;
27491;SDS011;14927;51.210;6.838;2023-09-19T12:49:29;3.33;;;1.23;;
27491;SDS011;14927;51.210;6.838;2023-09-19T12:52:13;3.47;;;1.15;;
27491;SDS011;14927;51.210;6.838;2023-09-19T12:54:59;5.57;;;1.35;;
27491;SDS011;14927;51.210;6.838;2023-09-19T13:00:56;3.97;;;1.35;;
27491;SDS011;14927;51.210;6.838;2023-09-19T13:03:40;5.50;;;1.27;;
27491;SDS011;14927;51.210;6.838;2023-09-19T13:06:35;3.85;;;1.45;;
27491;SDS011;14927;51.210;6.838;2023-09-19T13:09:27;5.70;;;1.60;;
27491;SDS011;14927;51.210;6.838;2023-09-19T13:12:35;5.43;;;1.17;;
27491;SDS011;14927;51.210;6.838;2023-09-19T13:15:22;2.72;;;1.17;;
27491;SDS011;14927;51.210;6.838;2023-09-19T13:18:12;6.07;;;1.67;;
27491;SDS011;14927;51.210;6.838;2023-09-19T13:21:06;5.50;;;1.30;;
27491;SDS011;14927;51.210;6.838;2023-09-19T13:24:19;6.57;;;1.60;;
27491;SDS011;14927;51.210;6.838;2023-09-19T13:27:11;5.15;;;0.90;;
27491;SDS011;14927;51.210;6.838;2023-09-19T13:29:56;5.93;;;1.40;;
27491;SDS011;14927;51.210;6.838;2023-09-19T13:32:40;5.05;;;1.33;;
27491;SDS011;14927;51.210;6.838;2023-09-19T13:35:26;1.70;;;0.80;;
27491;SDS011;14927;51.210;6.838;2023-09-19T13:38:11;3.22;;;1.40;;
27491;SDS011;14927;51.210;6.838;2023-09-19T13:40:56;3.20;;;1.00;;
27491;SDS011;14927;51.210;6.838;2023-09-19T13:43:41;7.05;;;1.02;;
27491;SDS011;14927;51.210;6.838;2023-09-19T13:46:25;4.30;;;0.90;;
27491;SDS011;14927;51.210;6.838;2023-09-19T13:49:11;3.20;;;1.13;;
27491;SDS011;14927;51.210;6.838;2023-09-19T13:51:56;3.28;;;1.90;;
27491;SDS011;14927;51.210;6.838;2023-09-19T13:54:40;7.10;;;1.30;;
27491;SDS011;14927;51.210;6.838;2023-09-19T13:57:25;3.88;;;0.98;;
27491;SDS011;14927;51.210;6.838;2023-09-19T14:00:11;2.85;;;0.90;;
27491;SDS011;14927;51.210;6.838;2023-09-19T14:03:00;3.17;;;1.13;;
27491;SDS011;14927;51.210;6.838;2023-09-19T14:05:45;3.97;;;1.27;;
27491;SDS011;14927;51.210;6.838;2023-09-19T14:08:29;3.83;;;0.73;;
27491;SDS011;14927;51.210;6.838;2023-09-19T14:11:14;6.65;;;0.80;;
27491;SDS011;14927;51.210;6.838;2023-09-19T14:13:59;3.53;;;1.17;;
27491;SDS011;14927;51.210;6.838;2023-09-19T14:16:44;5.35;;;1.40;;
27491;SDS011;14927;51.210;6.838;2023-09-19T14:19:29;2.50;;;0.80;;
27491;SDS011;14927;51.210;6.838;2023-09-19T14:22:13;2.80;;;1.13;;
27491;SDS011;14927;51.210;6.838;2023-09-19T14:24:58;3.38;;;1.00;;
27491;SDS011;14927;51.210;6.838;2023-09-19T14:27:43;2.75;;;0.80;;
27491;SDS011;14927;51.210;6.838;2023-09-19T14:30:28;2.78;;;1.10;;
27491;SDS011;14927;51.210;6.838;2023-09-19T14:33:12;4.93;;;1.08;;
27491;SDS011;14927;51.210;6.838;2023-09-19T14:36:03;4.43;;;1.20;;
27491;SDS011;14927;51.210;6.838;2023-09-19T14:38:53;2.38;;;0.70;;
27491;SDS011;14927;51.210;6.838;2023-09-19T14:41:39;2.30;;;0.73;;
27491;SDS011;14927;51.210;6.838;2023-09-19T14:44:24;1.63;;;0.70;;
27491;SDS011;14927;51.210;6.838;2023-09-19T14:47:08;1.92;;;0.50;;
27491;SDS011;14927;51.210;6.838;2023-09-19T14:49:57;3.78;;;0.80;;
27491;SDS011;14927;51.210;6.838;2023-09-19T14:52:42;6.65;;;1.13;;
27491;SDS011;14927;51.210;6.838;2023-09-19T14:55:28;5.05;;;0.65;;
27491;SDS011;14927;51.210;6.838;2023-09-19T14:58:13;2.30;;;0.75;;
27491;SDS011;14927;51.210;6.838;2023-09-19T15:01:07;3.88;;;0.82;;
27491;SDS011;14927;51.210;6.838;2023-09-19T15:03:54;4.18;;;1.00;;
27491;SDS011;14927;51.210;6.838;2023-09-19T15:06:39;2.72;;;0.57;;
27491;SDS011;14927;51.210;6.838;2023-09-19T15:09:24;2.03;;;0.60;;
27491;SDS011;14927;51.210;6.838;2023-09-19T15:12:09;2.17;;;0.52;;
27491;SDS011;14927;51.210;6.838;2023-09-19T15:14:57;1.40;;;0.50;;
27491;SDS011;14927;51.210;6.838;2023-09-19T15:17:42;3.00;;;0.75;;
27491;SDS011;14927;51.210;6.838;2023-09-19T15:20:27;3.40;;;0.93;;
27491;SDS011;14927;51.210;6.838;2023-09-19T15:23:11;3.92;;;0.70;;
27491;SDS011;14927;51.210;6.838;2023-09-19T15:25:56;3.28;;;0.70;;
27491;SDS011;14927;51.210;6.838;2023-09-19T15:28:41;1.45;;;0.80;;
27491;SDS011;14927;51.210;6.838;2023-09-19T15:31:26;2.05;;;0.75;;
27491;SDS011;14927;51.210;6.838;2023-09-19T15:34:10;2.47;;;0.70;;
27491;SDS011;14927;51.210;6.838;2023-09-19T15:36:58;0.82;;;0.43;;
27491;SDS011;14927;51.210;6.838;2023-09-19T15:39:44;1.40;;;0.70;;
27491;SDS011;14927;51.210;6.838;2023-09-19T15:42:30;3.50;;;0.70;;
27491;SDS011;14927;51.210;6.838;2023-09-19T15:45:14;4.13;;;0.70;;
27491;SDS011;14927;51.210;6.838;2023-09-19T15:47:59;3.20;;;1.67;;
27491;SDS011;14927;51.210;6.838;2023-09-19T15:50:44;3.10;;;0.70;;
27491;SDS011;14927;51.210;6.838;2023-09-19T15:53:31;1.30;;;0.60;;
27491;SDS011;14927;51.210;6.838;2023-09-19T15:56:29;8.65;;;1.02;;
27491;SDS011;14927;51.210;6.838;2023-09-19T15:59:13;2.60;;;0.70;;
27491;SDS011;14927;51.210;6.838;2023-09-19T16:02:01;3.63;;;0.70;;
27491;SDS011;14927;51.210;6.838;2023-09-19T16:04:46;2.53;;;0.68;;
27491;SDS011;14927;51.210;6.838;2023-09-19T16:07:31;2.35;;;0.90;;
27491;SDS011;14927;51.210;6.838;2023-09-19T16:10:17;2.88;;;0.85;;
27491;SDS011;14927;51.210;6.838;2023-09-19T16:13:01;3.00;;;0.75;;
27491;SDS011;14927;51.210;6.838;2023-09-19T16:15:47;2.92;;;0.90;;
27491;SDS011;14927;51.210;6.838;2023-09-19T16:18:31;4.15;;;1.40;;
27491;SDS011;14927;51.210;6.838;2023-09-19T16:21:17;2.90;;;0.77;;
27491;SDS011;14927;51.210;6.838;2023-09-19T16:24:05;2.97;;;0.80;;
27491;SDS011;14927;51.210;6.838;2023-09-19T16:26:50;3.30;;;1.20;;
27491;SDS011;14927;51.210;6.838;2023-09-19T16:29:36;3.25;;;1.10;;
27491;SDS011;14927;51.210;6.838;2023-09-19T16:32:20;2.20;;;0.80;;
27491;SDS011;14927;51.210;6.838;2023-09-19T16:35:05;5.20;;;1.48;;
27491;SDS011;14927;51.210;6.838;2023-09-19T16:37:52;2.70;;;1.15;;
27491;SDS011;14927;51.210;6.838;2023-09-19T16:40:39;5.32;;;1.48;;
27491;SDS011;14927;51.210;6.838;2023-09-19T16:43:35;2.75;;;1.15;;
27491;SDS011;14927;51.210;6.838;2023-09-19T16:46:20;5.05;;;1.00;;
27491;SDS011;14927;51.210;6.838;2023-09-19T16:49:05;2.10;;;1.10;;
27491;SDS011;14927;51.210;6.838;2023-09-19T16:51:49;3.25;;;0.70;;
27491;SDS011;14927;51.210;6.838;2023-09-19T16:54:34;3.88;;;0.85;;
27491;SDS011;14927;51.210;6.838;2023-09-19T16:57:18;4.93;;;0.82;;
27491;SDS011;14927;51.210;6.838;2023-09-19T17:00:04;5.05;;;0.82;;
27491;SDS011;14927;51.210;6.838;2023-09-19T17:02:51;2.00;;;0.85;;
27491;SDS011;14927;51.210;6.838;2023-09-19T17:05:36;5.03;;;0.88;;
27491;SDS011;14927;51.210;6.838;2023-09-19T17:08:24;3.47;;;0.90;;
27491;SDS011;14927;51.210;6.838;2023-09-19T17:11:12;2.83;;;1.00;;
27491;SDS011;14927;51.210;6.838;2023-09-19T17:14:01;4.07;;;0.90;;
27491;SDS011;14927;51.210;6.838;2023-09-19T17:16:47;2.75;;;0.98;;
27491;SDS011;14927;51.210;6.838;2023-09-19T17:19:32;2.58;;;0.88;;
27491;SDS011;14927;51.210;6.838;2023-09-19T17:22:17;3.47;;;0.90;;
27491;SDS011;14927;51.210;6.838;2023-09-19T17:25:02;4.63;;;1.00;;